Résultats

Trail National des Sapeurs Pompiers - 32KM. Édition 2018.

32 Km
19/05/2018 à 08:00:00 - GEMENOS (13)
131 arrivant(e)s.





Place▲ Temps Dossard Nom Prenom Categ #Categ Sexe #Sexe Club Vit Moy Diplôme Photo Partager
1 03:25:57 113 MORISSE YOANN SEM 1 M 1 SDIS-091-ESSONNE 9.32
2 03:33:45 82 ERDELI AURELIAN SEM 2 M 2 SDIS-066-PYRENEES ORIENTALES 8.98
3 03:35:38 4 N:Anonyme 4 P:Anonyme 4 M1M 1 M 3 SDIS-006-ALPES MARITIMES 8.90
4 03:41:19 91 N:Anonyme 91 P:Anonyme 91 SEM 3 M 4 SDIS-073-SAVOIE 8.68
5 03:42:50 131 FERNANDEZ NICOLAS SEM 4 M 5 SDIS-013-BOUCHES DU RHONE 8.62
6 03:44:01 61 ROTH GAETAN M2M 1 M 6 SDIS-043-HAUTE LOIRE 8.57
7 03:44:27 96 UVENARD ROMAIN SEM 5 M 7 SDIS-073-SAVOIE 8.55
8 03:45:50 95 KUSCHNICK PHILIPPE M1M 2 M 8 SDIS-073-SAVOIE 8.50
9 03:49:40 101 TOULZE ANTHONY SEM 6 M 9 SDIS-081-TARN 8.36
10 03:54:31 118 BADER CLEMENT SEM 7 M 10 DUNES D'ESPOIR 8.19
11 03:57:47 155 VAXILLAIRE YANN M1M 3 M 11 8.07
12 03:58:15 128 DESCHAMPS JULIEN M1M 4 M 12 TEAM FOULEE AUBAGNE 8.06
13 03:58:16 103 LEHR FREDERIC M1M 5 M 13 SDIS-083-VAR 8.06
14 03:58:26 59 LAURENT JULIEN SEM 8 M 14 SDIS-040-LANDES 8.05
15 04:02:45 116 ROTURIER MAX M1M 6 M 15 SDIS-131-BMP MARSEILLE 7.91
16 04:03:09 20 LE-GALLEZE XAVIER M1M 7 M 16 SDIS-013-BOUCHES DU RHONE 7.90
17 04:03:26 27 BLARDONE CHARLES SEM 9 M 17 SDIS-021-COTE D'OR 7.89
18 04:04:51 88 RUBELLIN PIERRE SEM 10 M 18 SDIS-069-RHONE 7.84
19 04:05:44 100 N:Anonyme 100 P:Anonyme 100 SEM 11 M 19 SDIS-081-TARN 7.81
20 04:09:10 97 VARENNE LUDOVIC M1M 8 M 20 SDIS-073-SAVOIE 7.71
21 04:09:26 110 BONNEAU DAVY SEM 12 M 21 SDIS-086-VIENNE 7.70
22 04:12:41 104 MARTIN PHILIPPE M1M 9 M 22 SDIS-083-VAR 7.60
23 04:13:40 31 CLET CECILE M1F 1 F 1 SDIS-021-COTE D'OR 7.57
24 04:14:05 72 BIAU STEPHANE SEM 13 M 23 SDIS-065-HAUTES-PYRENEES 7.56
25 04:19:01 148 RAYNAUD PATRICK-CHRISTOPHE M2M 2 M 24 7.41
26 04:19:51 35 OLASO NICOLAS M1M 10 M 25 SDIS-024-DORDOGNE 7.39
27 04:21:46 143 MONGOIN FLORIAN SEM 14 M 26 DA FOUF WARRIORS 7.33
28 04:22:19 145 PAGEON PIERRE SEM 15 M 27 TEAM RAIDLIGHT PACA 7.32
29 04:30:19 40 BAFFALIE CHRISTOPHE M2M 3 M 28 SDIS-030-GARD 7.10
30 04:31:46 81 BERTIN FLORIAN SEM 16 M 29 SDIS-066-PYRENEES ORIENTALES 7.06
31 04:35:21 140 MACCOTTA LAURENT M1M 11 M 30 6.97
32 04:37:05 121 CAMPION NICOLAS SEM 17 M 31 SDIS-062-PAS DE CALAIS 6.93
33 04:37:50 136 LACHAIZE OLIVIER M1M 12 M 32 6.91
34 04:37:59 114 FERREIRA ROBERTO SEM 18 M 33 SDIS-092-HAUTS DE SEINE 6.91
35 04:39:05 10 COSTECALDE MATTHIEU SEM 19 M 34 SDIS-012-AVEYRON 6.88
36 04:39:39 154 VANDEWALLE NICOLAS SEM 20 M 35 6.87
37 04:40:31 70 SAINT-MAXENT AURELIEN SEM 21 M 36 SDIS-062-PAS DE CALAIS 6.84
38 04:41:19 92 CROZ DANIEL M3M 1 M 37 SDIS-073-SAVOIE 6.83
39 04:43:06 41 ESCHALIER THOMAS SEM 22 M 38 SDIS-030-GARD 6.78
40 04:43:19 26 PERGUET XAVIER M1M 13 M 39 SDIS-019-CORREZE 6.78
41 04:43:50 117 AMALRIC SEBASTIEN M1M 14 M 40 6.76
42 04:43:54 48 KHARCHI MYRIAM M1F 2 F 2 SDIS-039-JURA 6.76
43 04:45:21 87 GENIN MATHIEU SEM 23 M 41 SDIS-069-RHONE 6.73
44 04:45:28 11 GUIOT JEROME SEM 24 M 42 SDIS-012-AVEYRON 6.73
45 04:46:01 19 HARSTRICH STEVEN SEM 25 M 43 SDIS-013-BOUCHES DU RHONE 6.71
46 04:46:14 42 BOYER NICOLAS M1M 15 M 44 SDIS-031-HAUTE-GARONNE 6.71
47 04:47:11 62 BONNAMY FRANCK SEM 26 M 45 SDIS-044-LOIRE ATLANTIQUE 6.69
48 04:47:11 83 LEON FREDERIC SEM 27 M 46 SDIS-066-PYRENEES ORIENTALES 6.69
49 04:48:13 37 FOUCHE ERWANN SEM 28 M 47 SDIS-027-EURE 6.66
50 04:49:43 146 PAOLI JEAN-JACQUES M2M 4 M 48 LE PASSE MONTAGNE BEDOIN 6.63
51 04:52:18 33 CANTEAU THOMAS SEM 29 M 49 SDIS-024-DORDOGNE 6.57
52 04:53:57 56 HUCHET MAUREEN SEF 1 F 3 SDIS-040-LANDES 6.53
53 04:53:57 1 CURTELIN QUENTIN SEM 30 M 50 SDIS-001-AIN 6.53
54 04:54:55 135 LABERTRANDIE MATHIEU SEM 31 M 51 SDIS-013-BOUCHES DU RHONE 6.51
55 04:56:14 120 BOUILLET MAX SEM 32 M 52 6.48
56 04:57:41 29 BREGAND MATTHIEU SEM 33 M 53 SDIS-021-COTE D'OR 6.45
57 04:57:49 77 DURANTON ROMAIN SEM 34 M 54 SDIS-065-HAUTES-PYRENEES 6.45
58 04:57:58 44 FERRER JULES SEM 35 M 55 SDIS-033-GIRONDE 6.44
59 04:57:59 84 TREVISAN CELIA SEF 2 F 4 SDIS-066-PYRENEES ORIENTALES 6.44
60 04:59:42 6 MOREAU MARIUS SEM 36 M 56 SDIS-009-ARIEGE 6.41
61 05:03:43 58 LATASTE LUDOVIC M1M 16 M 57 SDIS-040-LANDES 6.32
62 05:07:37 25 ESPINASSE JEROME M1M 17 M 58 SDIS-019-CORREZE 6.24
63 05:07:56 43 COFFINET CEDRIC M1M 18 M 59 SDIS-031-HAUTE-GARONNE 6.24
64 05:09:00 38 N:Anonyme 38 P:Anonyme 38 SEM 37 M 60 SDIS-027-EURE 6.21
65 05:10:58 14 DOURTHE GREGORY SEM 38 M 61 SDIS-013-BOUCHES DU RHONE 6.17
66 05:10:58 156 POROT CEDRIC M1M 19 M 62 6.17
67 05:11:06 153 VANCAYZEELE SANDRA SEF 3 F 5 LISSES AC 6.17
68 05:11:59 98 DESCAMPS XAVIER SEM 39 M 63 SDIS-081-TARN 6.15
69 05:12:51 150 SAUNIER LAURENT M1M 20 M 64 OLYMPIQUE CABRIES CALAS 6.14
70 05:14:06 71 ARNAUD GUILLAUME SEM 40 M 65 SDIS-065-HAUTES-PYRENEES 6.11
71 05:14:16 63 PILLET JULIEN SEM 41 M 66 SDIS-045-LOIRET 6.11
72 05:14:23 7 GUILBERT ANTOINE M1M 21 M 67 SDIS-010-AUBE 6.11
73 05:14:41 126 DEMARLE ISABELLE M1F 3 F 6 ATHELIC BERRE CLUB 6.10
74 05:15:28 36 PEDENON THIERRY M2M 5 M 68 SDIS-024-DORDOGNE 6.09
75 05:16:31 2 MONCHAUX FREDERIC SEM 42 M 69 SDIS-002-AISNE 6.07
76 05:18:25 106 SITJAS OLIVIER M1M 22 M 70 SDIS-083-VAR 6.03
77 05:27:03 24 SPODYMEK NICOLAS SEM 43 M 71 SDIS-013-BOUCHES DU RHONE 5.87
78 05:31:27 39 VITIS DYLAN SEM 44 M 72 SDIS-027-EURE 5.79
79 05:31:56 147 N:Anonyme 147 P:Anonyme 147 SEM 45 M 73 UDSP40 5.78
80 05:34:49 79 PONCE FABIEN SEM 46 M 74 SDIS-065-HAUTES-PYRENEES 5.73
81 05:34:49 34 N:Anonyme 34 P:Anonyme 34 M1F 4 F 7 SDIS-024-DORDOGNE 5.73
82 05:34:50 130 DROMENQ LAURENT M1M 23 M 75 5.73
83 05:36:00 132 GIBERTI AURELIEN SEM 47 M 76 I FILANCI 5.71
84 05:38:22 16 GELLY AGNES M1F 5 F 8 SDIS-013-BOUCHES DU RHONE 5.67
85 05:38:22 46 CALLIER ROBERT M3M 2 M 77 SDIS-039-JURA 5.67
86 05:38:49 30 CHANCENOTTE JEAN-MICHEL M1M 24 M 78 SDIS-021-COTE D'OR 5.67
87 05:39:06 115 GIGORY NOE SEM 48 M 79 SDIS-131-BMP MARSEILLE 5.66
88 05:40:26 5 BAYCHE OLIVIER SEM 49 M 80 SDIS-009-ARIEGE 5.64
89 05:41:41 102 N:Anonyme 102 P:Anonyme 102 M1M 25 M 81 SDIS-083-VAR 5.62
90 05:42:02 76 DEBRAY YASMINE M1F 6 F 9 SDIS-065-HAUTES-PYRENEES 5.61
91 05:43:02 17 GERBAL GILLES M1M 26 M 82 SDIS-013-BOUCHES DU RHONE 5.60
92 05:43:22 111 BAWA YHAN M1M 27 M 83 SDIS-091-ESSONNE 5.59
93 05:44:32 123 CIPOLLA THIERRY M2M 6 M 84 5.57
94 05:44:52 8 HERVAUD CHRISTOPHE M1M 28 M 85 SDIS-010-AUBE 5.57
95 05:46:51 54 FOIN GUILLAUME M1M 29 M 86 SDIS-040-LANDES 5.54
96 05:47:39 67 LESAGE GWENAEL SEM 50 M 87 SDIS-053-MAYENNE 5.52
97 05:50:01 124 DAUDET FRANCK M1F 7 F 10 SAPEUR POMPIER ALES 5.49
98 05:50:07 108 GRANGER SEBASTIEN SEM 51 M 88 SDIS-085-VENDEE 5.48
99 05:50:31 65 GOUGEON JULIEN SEM 52 M 89 SDIS-053-MAYENNE 5.48
100 05:54:33 49 BEAUGRAND ROMAIN SEM 53 M 90 SDIS-040-LANDES 5.42